Time;durP1;ratioP1;P1;durP2;ratioP2;P2;SDS_P1;SDS_P2;PMS_P1;PMS_P2;Temp;Humidity;BMP_temperature;BMP_pressure;BME280_temperature;BME280_humidity;BME280_pressure;Samples;Min_cycle;Max_cycle;Signal;HPM_P1;HPM_P2
2022/09/15 00:00:55;;;;;;;11.35;9.08;;;;;;;16.86;91.54;97193.75;1756325;81;25593;-58
2022/09/15 00:03:23;;;;;;;11.43;9.03;;;;;;;16.82;91.66;97195.14;1756182;81;25638;-58
2022/09/15 00:05:52;;;;;;;15.38;9.20;;;;;;;16.81;91.71;97186.63;1756747;81;25610;-59
2022/09/15 00:08:20;;;;;;;12.88;9.35;;;;;;;16.81;91.88;97183.86;1756350;81;25666;-58
2022/09/15 00:10:57;;;;;;;10.80;9.20;;;;;;;16.78;91.83;97174.38;1756465;81;27450;-58
2022/09/15 00:13:24;;;;;;;11.45;9.45;;;;;;;16.75;91.90;97173.78;1756016;81;25601;-58
2022/09/15 00:15:51;;;;;;;15.15;10.08;;;;;;;16.74;91.93;97171.41;1756460;81;25500;-59
2022/09/15 00:18:17;;;;;;;13.35;9.05;;;;;;;16.76;91.98;97182.30;1756065;81;25672;-59
2022/09/15 00:20:44;;;;;;;12.90;9.90;;;;;;;16.71;92.04;97172.98;1756701;81;25700;-59
2022/09/15 00:23:14;;;;;;;13.22;9.88;;;;;;;16.68;92.23;97171.80;1756055;81;27412;-60
2022/09/15 00:25:47;;;;;;;12.35;9.50;;;;;;;16.67;92.26;97158.37;1756302;81;25428;-60
2022/09/15 00:28:16;;;;;;;15.45;10.23;;;;;;;16.68;92.25;97155.80;1755860;81;25732;-60
2022/09/15 00:30:45;;;;;;;13.93;10.20;;;;;;;16.67;92.19;97152.84;1756269;81;25678;-60
2022/09/15 00:33:14;;;;;;;16.15;11.10;;;;;;;16.65;92.30;97158.76;1756761;81;25610;-60
2022/09/15 00:35:43;;;;;;;15.15;10.60;;;;;;;16.67;92.40;97156.98;1756368;81;27431;-60
2022/09/15 00:38:11;;;;;;;18.45;11.93;;;;;;;16.64;92.61;97160.53;1756377;81;25796;-60
2022/09/15 00:40:53;;;;;;;16.93;11.50;;;;;;;16.62;92.62;97147.67;1756295;81;25669;-61
2022/09/15 00:43:41;;;;;;;16.52;11.57;;;;;;;16.60;93.01;97145.89;1756790;81;25591;-61
2022/09/15 00:46:09;;;;;;;14.50;10.53;;;;;;;16.57;93.12;97146.09;1756066;81;25571;-61
2022/09/15 00:48:39;;;;;;;14.35;10.63;;;;;;;16.56;93.10;97148.66;1756332;81;27931;-61
2022/09/15 00:51:08;;;;;;;13.93;10.60;;;;;;;16.55;93.29;97152.59;1756445;81;25807;-61
2022/09/15 00:53:36;;;;;;;15.50;10.48;;;;;;;16.53;93.94;97146.67;1756274;81;25506;-61
2022/09/15 00:56:04;;;;;;;12.50;9.18;;;;;;;16.53;93.92;97143.91;1756325;81;26295;-61
2022/09/15 00:58:36;;;;;;;12.63;9.80;;;;;;;16.51;94.69;97139.35;1756369;81;25617;-61
2022/09/15 01:01:06;;;;;;;12.13;8.85;;;;;;;16.53;94.59;97130.09;1755819;81;27401;-61
2022/09/15 01:03:34;;;;;;;11.85;9.38;;;;;;;16.53;94.83;97127.32;1756117;81;25854;-61
2022/09/15 01:06:09;;;;;;;11.60;8.20;;;;;;;16.53;94.95;97113.50;1756548;81;25670;-61
2022/09/15 01:08:53;;;;;;;9.43;8.13;;;;;;;16.53;95.59;97110.73;1738337;81;26339;-61
2022/09/15 01:11:19;;;;;;;10.82;7.65;;;;;;;16.55;95.79;97111.11;1755921;81;25639;-62
2022/09/15 01:13:45;;;;;;;14.25;8.40;;;;;;;16.54;96.22;97103.42;1755999;81;27410;-61
2022/09/15 01:16:53;;;;;;;15.30;8.00;;;;;;;16.55;95.99;97105.58;1756370;81;25657;-61
2022/09/15 01:20:17;;;;;;;11.28;7.55;;;;;;;16.55;96.25;97104.20;1756456;81;25677;-61
2022/09/15 01:23:04;;;;;;;9.90;7.65;;;;;;;16.58;96.82;97104.02;1756483;81;25601;-62
2022/09/15 01:25:54;;;;;;;10.03;7.62;;;;;;;16.60;96.31;97118.23;1755280;81;25626;-62
2022/09/15 01:29:00;;;;;;;13.10;8.90;;;;;;;16.63;96.69;97114.10;1756601;81;27538;-62
2022/09/15 01:33:02;;;;;;;8.78;7.87;;;;;;;16.67;96.65;97108.59;1756088;81;25676;-62
2022/09/15 01:34:18;;;;;;;10.08;7.55;;;;;;;16.71;97.27;97105.81;1703120;84;25612;-62
2022/09/15 01:36:55;;;;;;;11.57;7.55;;;;;;;16.72;97.49;97099.88;1706707;84;25559;-62
2022/09/15 01:39:25;;;;;;;8.68;6.65;;;;;;;16.75;97.80;97092.80;1706818;84;25708;-62
2022/09/15 01:42:01;;;;;;;10.35;7.47;;;;;;;16.79;98.10;97099.91;1707289;84;27439;-61
2022/09/15 01:44:35;;;;;;;8.98;7.58;;;;;;;16.82;97.69;97098.32;1706893;84;25742;-61
2022/09/15 01:47:06;;;;;;;9.18;7.28;;;;;;;16.86;97.91;97094.95;1706272;84;25623;-61
2022/09/15 01:49:52;;;;;;;9.28;7.87;;;;;;;16.91;98.00;97096.55;1707005;84;25730;-61
2022/09/15 01:52:22;;;;;;;10.53;7.62;;;;;;;16.93;97.80;97096.34;1707032;84;25580;-61
2022/09/15 01:54:53;;;;;;;10.38;7.95;;;;;;;16.96;97.61;97098.13;1707098;84;28258;-61
2022/09/15 01:57:23;;;;;;;9.73;7.37;;;;;;;16.97;97.60;97089.43;1706877;84;25936;-61
2022/09/15 01:59:53;;;;;;;8.75;7.67;;;;;;;17.00;97.88;97091.98;1706143;84;25647;-61
2022/09/15 02:02:48;;;;;;;12.07;8.08;;;;;;;17.02;97.84;97087.66;1706653;84;27539;-61
2022/09/15 02:05:40;;;;;;;8.63;7.15;;;;;;;17.04;98.12;97096.95;1706716;84;25664;-61
2022/09/15 02:08:24;;;;;;;10.50;7.72;;;;;;;17.07;98.01;97085.09;1706696;84;27410;-61
2022/09/15 02:10:58;;;;;;;12.63;7.87;;;;;;;17.10;97.73;97086.30;1717730;81;25757;-61
2022/09/15 02:13:40;;;;;;;8.58;6.90;;;;;;;17.09;97.94;97081.34;1755737;81;25605;-60
2022/09/15 02:16:18;;;;;;;9.05;7.28;;;;;;;17.10;97.84;97091.22;1756323;81;25601;-61
2022/09/15 02:18:50;;;;;;;9.48;7.35;;;;;;;17.11;97.57;97093.41;1755566;81;25431;-61
2022/09/15 02:21:33;;;;;;;8.53;7.28;;;;;;;17.11;97.85;97085.90;1756096;81;27542;-61
2022/09/15 02:24:07;;;;;;;9.30;7.40;;;;;;;17.12;97.87;97085.28;1756403;81;25444;-61
2022/09/15 02:26:34;;;;;;;11.28;8.18;;;;;;;17.13;97.80;97086.89;1756057;81;25740;-61
2022/09/15 02:29:05;;;;;;;9.53;7.72;;;;;;;17.11;98.14;97076.21;1764783;81;25637;-61
2022/09/15 02:31:32;;;;;;;;;;;;;;;17.12;97.95;97083.31;1758827;81;25610;-61
2022/09/15 02:34:07;;;;;;;8.80;7.75;;;;;;;17.11;98.11;97078.18;1756370;81;27378;-61
2022/09/15 02:36:34;;;;;;;9.25;7.08;;;;;;;17.09;98.13;97081.34;1749350;81;26297;-61
2022/09/15 02:39:06;;;;;;;9.25;7.30;;;;;;;17.08;98.23;97078.97;1755952;81;25415;-61
2022/09/15 02:41:34;;;;;;;8.88;6.50;;;;;;;17.06;98.18;97077.95;1738878;81;25486;-61
2022/09/15 02:44:02;;;;;;;9.23;7.47;;;;;;;17.06;97.92;97077.95;1756309;81;25483;-61
2022/09/15 02:46:29;;;;;;;10.10;8.08;;;;;;;17.00;98.00;97066.50;1755940;81;27398;-61
2022/09/15 02:48:55;;;;;;;9.40;7.22;;;;;;;17.00;97.81;97072.03;1756003;81;26080;-61
2022/09/15 02:51:22;;;;;;;14.53;7.42;;;;;;;17.01;97.75;97067.30;1756194;81;25431;-61
2022/09/15 02:53:48;;;;;;;10.30;7.80;;;;;;;16.99;97.77;97064.93;1756094;81;25661;-61
2022/09/15 02:56:15;;;;;;;9.55;7.40;;;;;;;16.98;97.53;97051.49;1756602;81;25666;-61
2022/09/15 02:58:42;;;;;;;8.38;6.75;;;;;;;16.99;97.62;97066.31;1756207;81;28851;-61
2022/09/15 03:01:16;;;;;;;8.30;7.17;;;;;;;16.98;97.49;97060.56;1756338;81;25934;-61
2022/09/15 03:03:44;;;;;;;8.98;7.60;;;;;;;16.99;97.42;97058.59;1756175;81;25503;-61
2022/09/15 03:06:15;;;;;;;11.28;7.40;;;;;;;16.98;97.37;97058.41;1756399;81;25660;-61
2022/09/15 03:08:45;;;;;;;10.08;7.20;;;;;;;16.97;97.52;97057.61;1756295;81;25603;-61
2022/09/15 03:11:12;;;;;;;7.90;6.45;;;;;;;16.97;97.44;97060.38;1756572;81;27396;-61
2022/09/15 03:13:38;;;;;;;9.98;7.05;;;;;;;16.98;97.66;97059.18;1755950;81;25530;-61
2022/09/15 03:16:10;;;;;;;9.43;6.80;;;;;;;16.99;97.33;97068.28;1756168;81;25650;-61
2022/09/15 03:18:38;;;;;;;8.95;7.25;;;;;;;17.01;97.41;97070.07;1756387;81;25673;-61
2022/09/15 03:21:07;;;;;;;8.95;7.53;;;;;;;17.03;97.45;97068.48;1756452;81;25469;-61
2022/09/15 03:23:34;;;;;;;10.20;8.38;;;;;;;17.04;97.47;97060.36;1756697;81;28304;-61
2022/09/15 03:26:01;;;;;;;11.48;8.20;;;;;;;17.07;97.29;97062.95;1756285;81;25709;-61
2022/09/15 03:28:28;;;;;;;11.15;8.38;;;;;;;17.08;97.26;97059.02;1756573;81;25447;-61
2022/09/15 03:30:55;;;;;;;11.45;8.50;;;;;;;17.10;97.13;97063.55;1752222;81;25808;-61
2022/09/15 03:33:23;;;;;;;8.65;7.45;;;;;;;17.10;97.26;97055.23;1756153;81;25645;-61
2022/09/15 03:35:52;;;;;;;11.53;8.90;;;;;;;17.11;97.32;97061.58;1756323;81;27413;-61
2022/09/15 03:38:19;;;;;;;10.28;8.53;;;;;;;17.11;97.12;97053.27;1756143;81;25484;-61
2022/09/15 03:40:59;;;;;;;11.03;8.30;;;;;;;17.12;97.20;97055.64;1756046;81;25437;-61
2022/09/15 03:43:26;;;;;;;10.88;8.70;;;;;;;17.13;97.08;97053.06;1756027;81;25833;-61
2022/09/15 03:45:53;;;;;;;10.03;8.25;;;;;;;17.14;96.96;97055.25;1756450;81;25368;-62
2022/09/15 03:48:19;;;;;;;8.40;7.33;;;;;;;17.14;96.80;97050.51;1756396;81;28251;-62
2022/09/15 03:50:46;;;;;;;8.43;7.30;;;;;;;17.17;96.77;97054.45;1756826;81;25411;-62
2022/09/15 03:53:13;;;;;;;9.58;6.60;;;;;;;17.18;96.67;97049.10;1756168;81;25451;-61
2022/09/15 03:55:39;;;;;;;8.33;6.95;;;;;;;17.21;96.51;97042.77;1756381;81;25645;-61
2022/09/15 03:58:05;;;;;;;8.25;6.83;;;;;;;17.22;96.32;97047.72;1756388;81;25677;-62
2022/09/15 04:00:31;;;;;;;8.40;6.80;;;;;;;17.22;96.37;97045.75;1756206;81;27487;-62
2022/09/15 04:02:57;;;;;;;6.85;5.58;;;;;;;17.22;96.14;97042.98;1756078;81;25479;-62
2022/09/15 04:05:23;;;;;;;8.50;6.05;;;;;;;17.25;96.05;97035.86;1756398;81;25599;-62
2022/09/15 04:07:50;;;;;;;7.67;6.35;;;;;;;17.25;95.96;97040.81;1755980;81;25661;-62
2022/09/15 04:10:17;;;;;;;6.83;5.75;;;;;;;17.26;95.81;97041.58;1756715;81;25655;-62
2022/09/15 04:12:43;;;;;;;6.28;5.30;;;;;;;17.27;95.58;97035.64;1756069;81;27569;-61
2022/09/15 04:15:10;;;;;;;4.70;4.03;;;;;;;17.27;95.35;97031.49;1756406;81;25880;-62
2022/09/15 04:17:36;;;;;;;7.10;4.55;;;;;;;17.28;95.01;97028.14;1756542;81;25661;-61
2022/09/15 04:20:03;;;;;;;6.42;5.08;;;;;;;17.32;94.86;97032.30;1739307;81;25659;-62
2022/09/15 04:22:32;;;;;;;5.03;3.80;;;;;;;17.32;94.68;97033.67;1756332;81;25645;-62
2022/09/15 04:24:58;;;;;;;4.20;3.58;;;;;;;17.33;94.34;97030.52;1756084;81;27479;-62
2022/09/15 04:27:24;;;;;;;4.90;4.37;;;;;;;17.35;94.16;97025.93;1756391;81;25949;-61
2022/09/15 04:29:51;;;;;;;5.30;4.65;;;;;;;17.38;94.05;97026.52;1756458;81;25621;-62
2022/09/15 04:32:19;;;;;;;7.80;4.83;;;;;;;17.36;94.04;97026.91;1755992;81;27514;-62
2022/09/15 04:34:46;;;;;;;6.67;4.85;;;;;;;17.39;94.05;97025.34;1756101;81;25687;-61
2022/09/15 04:37:12;;;;;;;8.75;5.30;;;;;;;17.38;94.07;97025.12;1756402;81;27454;-62
2022/09/15 04:39:38;;;;;;;5.28;4.78;;;;;;;17.40;94.05;97030.48;1753772;81;25836;-62
2022/09/15 04:42:05;;;;;;;7.72;5.35;;;;;;;17.41;94.11;97028.48;1755165;81;26433;-61
2022/09/15 04:44:32;;;;;;;6.95;5.05;;;;;;;17.41;94.07;97025.13;1756268;81;25388;-61
2022/09/15 04:46:58;;;;;;;6.40;5.30;;;;;;;17.43;94.00;97021.37;1756067;81;25471;-61
2022/09/15 04:49:24;;;;;;;8.03;5.50;;;;;;;17.46;93.95;97024.52;1756038;81;27516;-61
2022/09/15 04:51:52;;;;;;;8.45;6.30;;;;;;;17.47;93.98;97033.04;1755833;81;25730;-61
2022/09/15 04:54:20;;;;;;;7.42;5.17;;;;;;;17.47;93.92;97026.89;1756077;81;25440;-61
2022/09/15 04:56:47;;;;;;;6.67;4.78;;;;;;;17.48;93.83;97029.08;1756001;81;25606;-61
2022/09/15 04:59:16;;;;;;;7.25;4.95;;;;;;;17.48;93.73;97022.95;1756150;81;25476;-61
2022/09/15 05:01:43;;;;;;;6.50;4.85;;;;;;;17.51;93.68;97024.12;1756426;81;27476;-61
2022/09/15 05:04:09;;;;;;;6.58;4.30;;;;;;;17.52;93.54;97021.53;1756231;81;25420;-61
2022/09/15 05:06:37;;;;;;;5.90;5.15;;;;;;;17.55;93.47;97016.58;1755967;81;25657;-61
2022/09/15 05:09:07;;;;;;;7.15;4.83;;;;;;;17.60;93.41;97025.07;1756605;81;26116;-61
2022/09/15 05:11:33;;;;;;;6.10;4.33;;;;;;;17.62;93.24;97026.85;1756244;81;25569;-61
2022/09/15 05:14:00;;;;;;;5.35;4.30;;;;;;;17.65;92.93;97030.98;1756387;81;27589;-61
2022/09/15 05:16:28;;;;;;;7.15;4.55;;;;;;;17.69;92.79;97032.36;1756433;81;25726;-61
2022/09/15 05:18:58;;;;;;;6.95;4.85;;;;;;;17.72;92.46;97030.17;1755968;81;25590;-61
2022/09/15 05:21:26;;;;;;;7.05;4.50;;;;;;;17.74;92.34;97023.64;1756516;81;25428;-61
2022/09/15 05:23:53;;;;;;;5.12;3.62;;;;;;;17.76;91.97;97021.86;1756196;81;25459;-60
2022/09/15 05:26:24;;;;;;;4.80;3.33;;;;;;;17.78;91.60;97022.22;1756332;81;28764;-61
2022/09/15 05:28:50;;;;;;;5.05;3.98;;;;;;;17.80;91.31;97026.77;1756364;81;25680;-61
2022/09/15 05:31:25;;;;;;;5.50;3.47;;;;;;;17.85;91.74;97023.59;1755975;81;25499;-61
2022/09/15 05:33:52;;;;;;;5.60;4.00;;;;;;;17.88;91.43;97028.92;1747555;81;25618;-61
2022/09/15 05:36:22;;;;;;;5.20;3.83;;;;;;;17.89;91.56;97024.95;1742978;81;25401;-61
2022/09/15 05:38:48;;;;;;;6.67;4.70;;;;;;;17.88;91.42;97029.69;1742877;81;27580;-60
2022/09/15 05:41:17;;;;;;;6.37;5.17;;;;;;;17.89;91.61;97031.29;1742994;81;25873;-61
2022/09/15 05:43:46;;;;;;;6.95;4.80;;;;;;;17.90;91.39;97027.31;1742815;81;25417;-61
2022/09/15 05:46:14;;;;;;;5.83;4.17;;;;;;;17.93;91.44;97031.25;1742691;82;25491;-60
2022/09/15 05:48:40;;;;;;;6.85;4.17;;;;;;;17.95;91.19;97038.58;1742758;81;25584;-61
2022/09/15 05:51:06;;;;;;;6.65;4.70;;;;;;;17.96;90.88;97038.77;1742794;82;27375;-60
2022/09/15 05:53:35;;;;;;;5.47;3.83;;;;;;;17.97;90.91;97043.13;1742682;82;25673;-60
2022/09/15 05:56:05;;;;;;;4.33;3.37;;;;;;;17.98;90.62;97041.93;1742651;82;25489;-60
2022/09/15 05:58:32;;;;;;;;;;;;;;;17.98;90.74;97049.45;1745581;81;25606;-60
2022/09/15 06:01:08;;;;;;;6.60;4.40;;;;;;;17.98;90.98;97059.14;1742678;82;25654;-60
2022/09/15 06:03:35;;;;;;;5.55;3.77;;;;;;;17.97;91.13;97054.22;1739095;82;28332;-61
2022/09/15 06:06:05;;;;;;;6.72;4.30;;;;;;;17.96;91.31;97060.93;1743003;82;25598;-60
2022/09/15 06:08:35;;;;;;;5.30;3.62;;;;;;;17.94;91.56;97067.49;1743058;81;25671;-60
2022/09/15 06:11:12;;;;;;;3.77;3.40;;;;;;;17.93;91.67;97063.92;1743071;82;25474;-60
2022/09/15 06:13:38;;;;;;;4.08;3.67;;;;;;;17.90;91.79;97083.33;1741569;81;25481;-60
2022/09/15 06:16:12;;;;;;;5.47;3.90;;;;;;;17.85;92.31;97090.69;1742622;82;27550;-60
2022/09/15 06:18:40;;;;;;;3.90;3.50;;;;;;;17.78;92.23;97094.26;1742871;82;25984;-60
2022/09/15 06:21:11;;;;;;;3.70;3.35;;;;;;;17.70;91.96;97103.19;1743062;81;25681;-61
2022/09/15 06:23:39;;;;;;;5.97;4.58;;;;;;;17.60;92.37;97102.04;1743362;81;26103;-61
2022/09/15 06:26:10;;;;;;;5.05;4.08;;;;;;;17.54;92.19;97115.51;1742711;81;25425;-60
2022/09/15 06:28:38;;;;;;;3.22;2.83;;;;;;;17.43;92.66;97124.42;1742912;82;28361;-61
2022/09/15 06:31:10;;;;;;;2.77;1.98;;;;;;;17.32;92.62;97136.88;1742816;82;25747;-60
2022/09/15 06:33:42;;;;;;;2.10;1.90;;;;;;;17.20;92.99;97145.00;1742912;81;25741;-60
2022/09/15 06:36:10;;;;;;;1.22;1.10;;;;;;;17.08;92.82;97153.11;1743068;81;26228;-61
2022/09/15 06:38:38;;;;;;;1.10;1.00;;;;;;;17.02;92.79;97168.49;1743171;81;25661;-60
2022/09/15 06:41:06;;;;;;;1.05;0.95;;;;;;;16.94;92.99;97162.16;1742775;81;27998;-60
2022/09/15 06:43:33;;;;;;;1.20;1.00;;;;;;;16.91;92.92;97179.55;1743135;82;25965;-61
2022/09/15 06:46:07;;;;;;;1.22;0.78;;;;;;;16.93;93.60;97184.10;1742886;81;25501;-60
2022/09/15 06:48:35;;;;;;;1.00;0.80;;;;;;;16.92;93.59;97178.34;1743052;82;25614;-60
2022/09/15 06:51:03;;;;;;;1.07;0.80;;;;;;;16.90;92.86;97186.27;1742685;82;25464;-60
2022/09/15 06:53:32;;;;;;;0.80;0.72;;;;;;;16.83;92.98;97203.63;1743015;82;27851;-60
2022/09/15 06:56:09;;;;;;;0.70;0.70;;;;;;;16.85;93.10;97208.77;1742987;81;25817;-60
2022/09/15 06:58:37;;;;;;;0.90;0.88;;;;;;;16.79;92.21;97218.05;1742906;81;25523;-61
2022/09/15 07:01:11;;;;;;;1.10;1.00;;;;;;;16.76;92.49;97221.02;1743002;82;25638;-60
2022/09/15 07:03:40;;;;;;;1.10;1.00;;;;;;;16.78;92.71;97236.63;1743206;81;25630;-60
2022/09/15 07:06:08;;;;;;;1.10;1.00;;;;;;;16.78;92.68;97247.69;1743039;82;27451;-60
2022/09/15 07:08:35;;;;;;;0.93;0.88;;;;;;;16.86;92.83;97249.08;1742980;81;25622;-60
2022/09/15 07:11:01;;;;;;;1.47;1.02;;;;;;;16.85;92.35;97264.91;1743014;82;25408;-60
2022/09/15 07:13:27;;;;;;;1.12;0.82;;;;;;;16.87;92.71;97263.91;1742668;82;25674;-60
2022/09/15 07:15:58;;;;;;;2.00;1.00;;;;;;;16.94;92.28;97268.69;1742845;81;25497;-60
2022/09/15 07:18:25;;;;;;;1.45;0.80;;;;;;;16.93;91.64;97279.56;1743199;81;27520;-60
2022/09/15 07:20:54;;;;;;;0.88;0.88;;;;;;;16.93;91.83;97287.86;1742660;82;25768;-60
2022/09/15 07:23:20;;;;;;;1.15;0.90;;;;;;;16.98;91.98;97294.38;1742938;81;25658;-60
2022/09/15 07:25:46;;;;;;;1.10;1.00;;;;;;;16.93;91.29;97296.94;1742637;82;27422;-60
2022/09/15 07:28:16;;;;;;;1.85;1.30;;;;;;;16.92;91.88;97304.24;1743371;82;25609;-60
2022/09/15 07:30:43;;;;;;;6.40;1.60;;;;;;;16.91;91.74;97306.23;1742855;82;27489;-61
2022/09/15 07:33:12;;;;;;;1.40;1.30;;;;;;;16.94;91.80;97318.48;1742720;81;25643;-60
2022/09/15 07:35:43;;;;;;;1.80;1.17;;;;;;;16.98;91.63;97324.05;1743162;81;25636;-60
2022/09/15 07:38:10;;;;;;;1.80;1.00;;;;;;;17.00;91.76;97334.12;1738968;82;25938;-61
2022/09/15 07:40:37;;;;;;;4.00;1.32;;;;;;;17.01;91.38;97347.56;1742695;81;25629;-61
2022/09/15 07:43:05;;;;;;;1.95;1.20;;;;;;;16.99;91.28;97349.95;1742791;81;27435;-61
2022/09/15 07:45:34;;;;;;;1.30;1.20;;;;;;;17.00;91.37;97348.76;1757635;81;25892;-60
2022/09/15 07:48:01;;;;;;;1.82;1.12;;;;;;;17.05;91.41;97362.23;1742818;81;25641;-61
2022/09/15 07:50:27;;;;;;;1.40;1.20;;;;;;;17.09;91.35;97369.17;1743198;82;25828;-61
2022/09/15 07:52:57;;;;;;;2.33;1.20;;;;;;;17.11;91.55;97370.97;1742772;82;25700;-61
2022/09/15 07:55:24;;;;;;;1.90;1.22;;;;;;;17.12;91.48;97373.93;1743414;82;27479;-61
2022/09/15 07:58:00;;;;;;;1.67;1.00;;;;;;;17.12;91.32;97378.08;1742715;81;25678;-61
2022/09/15 08:00:27;;;;;;;2.12;1.10;;;;;;;17.14;91.25;97381.27;1743135;81;25509;-61
2022/09/15 08:02:54;;;;;;;1.98;1.20;;;;;;;17.17;91.31;97376.92;1742732;81;25627;-61
2022/09/15 08:05:25;;;;;;;1.30;1.20;;;;;;;17.16;91.31;97388.57;1742906;81;25690;-61
2022/09/15 08:07:50;;;;;;;1.52;1.10;;;;;;;17.19;91.34;97388.41;1742665;81;25641;-61
2022/09/15 08:10:16;;;;;;;1.30;1.17;;;;;;;17.27;91.63;97384.46;1743243;82;25710;-61
2022/09/15 08:12:43;;;;;;;2.30;1.30;;;;;;;17.38;91.65;97384.50;1742812;82;25626;-61
2022/09/15 08:15:09;;;;;;;1.30;1.20;;;;;;;17.51;91.39;97385.53;1742780;82;25508;-61
2022/09/15 08:17:36;;;;;;;1.40;1.30;;;;;;;17.58;90.56;97385.53;1742725;81;25492;-61
2022/09/15 08:20:03;;;;;;;1.40;1.30;;;;;;;17.73;91.12;97394.66;1742988;82;27018;-61
2022/09/15 08:22:29;;;;;;;2.33;1.20;;;;;;;17.89;90.70;97399.05;1743144;81;25618;-61
2022/09/15 08:24:56;;;;;;;1.37;1.17;;;;;;;17.99;89.54;97405.19;1742791;82;25508;-62
2022/09/15 08:27:22;;;;;;;3.72;1.87;;;;;;;18.08;89.43;97401.24;1742974;81;25825;-61
2022/09/15 08:29:48;;;;;;;2.15;1.77;;;;;;;18.13;88.62;97404.44;1743002;81;25681;-61
2022/09/15 08:32:15;;;;;;;1.15;1.00;;;;;;;18.12;88.72;97402.86;1742894;82;28052;-61
2022/09/15 08:34:41;;;;;;;1.27;1.00;;;;;;;18.16;87.79;97407.00;1749305;81;25449;-61
2022/09/15 08:37:07;;;;;;;1.20;1.10;;;;;;;18.25;88.41;97396.92;1756485;81;25431;-62
2022/09/15 08:39:34;;;;;;;1.98;1.10;;;;;;;18.34;88.01;97401.48;1756019;81;25633;-62
2022/09/15 08:42:02;;;;;;;3.45;1.22;;;;;;;18.41;87.77;97416.72;1756455;81;25657;-62
2022/09/15 08:44:54;;;;;;;1.17;1.00;;;;;;;18.49;87.45;97413.93;1756054;81;27411;-61
2022/09/15 08:47:34;;;;;;;2.98;1.00;;;;;;;18.48;85.68;97417.91;1756775;81;25566;-61
2022/09/15 08:50:32;;;;;;;1.10;0.95;;;;;;;18.53;86.74;97422.45;1756467;81;25673;-60
2022/09/15 08:53:10;;;;;;;4.30;1.40;;;;;;;18.55;86.38;97430.38;1756317;81;25652;-61
2022/09/15 08:55:56;;;;;;;3.00;1.45;;;;;;;18.58;86.57;97429.58;1757118;81;25644;-61
2022/09/15 08:58:33;;;;;;;1.37;1.20;;;;;;;18.55;85.41;97431.76;1756052;81;27377;-61
2022/09/15 09:01:25;;;;;;;1.80;1.20;;;;;;;18.55;85.83;97425.63;1755876;81;25729;-61
2022/09/15 09:04:32;;;;;;;2.55;1.40;;;;;;;18.55;85.14;97427.02;1756539;81;25583;-60
2022/09/15 09:07:29;;;;;;;1.90;1.32;;;;;;;18.58;85.97;97421.84;1755922;81;26369;-60
2022/09/15 09:10:18;;;;;;;2.58;1.57;;;;;;;18.65;85.72;97419.08;1755411;81;25397;-61
2022/09/15 09:13:21;;;;;;;1.55;1.45;;;;;;;18.66;86.04;97420.06;1756037;81;27383;-60
2022/09/15 09:15:55;;;;;;;2.02;1.80;;;;;;;18.71;85.38;97420.84;1755990;81;25486;-61
2022/09/15 09:18:45;;;;;;;3.05;2.15;;;;;;;18.80;85.88;97426.77;1751154;81;25645;-60
2022/09/15 09:21:40;;;;;;;2.55;1.90;;;;;;;18.87;86.10;97424.56;1755861;81;25437;-61
2022/09/15 09:24:21;;;;;;;2.60;2.40;;;;;;;19.00;85.66;97428.48;1756350;81;25436;-60
2022/09/15 09:26:53;;;;;;;2.62;2.42;;;;;;;19.03;84.26;97431.08;1755042;81;27344;-60
2022/09/15 09:29:27;;;;;;;4.42;3.17;;;;;;;19.03;85.12;97429.08;1756085;81;25662;-60
2022/09/15 09:31:56;;;;;;;6.45;2.95;;;;;;;19.02;85.12;97425.31;1756358;81;25602;-58
2022/09/15 09:34:54;;;;;;;3.12;2.30;;;;;;;19.00;85.19;97427.72;1755931;81;26396;-58
2022/09/15 09:37:22;;;;;;;3.08;2.33;;;;;;;18.93;84.97;97434.87;1706768;84;25663;-59
2022/09/15 09:39:48;;;;;;;3.17;2.25;;;;;;;18.78;84.46;97427.17;1706708;84;27652;-59
2022/09/15 09:42:17;;;;;;;3.17;2.87;;;;;;;18.67;85.22;97431.94;1706972;84;25530;-59
2022/09/15 09:44:45;;;;;;;2.60;2.40;;;;;;;18.54;85.36;97426.02;1707197;84;25687;-59
2022/09/15 09:47:12;;;;;;;2.95;2.67;;;;;;;18.48;85.92;97427.00;1706797;84;25667;-59
2022/09/15 09:49:46;;;;;;;2.75;2.45;;;;;;;18.46;86.36;97429.39;1707060;84;25700;-60
2022/09/15 09:52:12;;;;;;;3.40;3.00;;;;;;;18.50;86.18;97420.47;1706981;84;28353;-59
2022/09/15 09:54:40;;;;;;;3.92;2.37;;;;;;;18.54;87.16;97416.31;1707134;84;26020;-59
2022/09/15 09:57:29;;;;;;;3.35;2.67;;;;;;;18.59;86.73;97407.57;1706909;84;25707;-59
2022/09/15 09:59:56;;;;;;;3.02;2.60;;;;;;;18.64;87.41;97411.34;1656871;86;25533;-58
2022/09/15 10:02:25;;;;;;;3.02;2.72;;;;;;;18.68;87.36;97411.31;1656081;86;25559;-58
2022/09/15 10:05:06;;;;;;;6.83;3.33;;;;;;;18.73;87.44;97403.98;1656726;86;28369;-58
2022/09/15 10:07:34;;;;;;;3.98;3.47;;;;;;;18.73;87.40;97405.95;1657199;86;32883;-60
2022/09/15 10:10:01;;;;;;;3.55;3.25;;;;;;;18.74;87.23;97406.94;1656874;86;25821;-60
2022/09/15 10:12:40;;;;;;;4.17;3.45;;;;;;;18.77;87.16;97403.98;1659947;85;25860;-60
2022/09/15 10:15:11;;;;;;;3.52;3.22;;;;;;;18.77;87.40;97407.53;1675315;85;25672;-60
2022/09/15 10:17:41;;;;;;;4.00;2.83;;;;;;;18.78;86.31;97404.97;1672977;85;27467;-60
2022/09/15 10:20:49;;;;;;;5.37;2.90;;;;;;;18.76;86.43;97406.55;1675371;85;25592;-61
2022/09/15 10:23:28;;;;;;;3.40;3.10;;;;;;;18.74;86.54;97396.46;1686868;85;25532;-60
2022/09/15 10:26:17;;;;;;;3.98;3.05;;;;;;;18.83;87.49;97394.64;1687178;85;26596;-60
2022/09/15 10:29:05;;;;;;;4.62;3.70;;;;;;;18.89;86.37;97398.59;1687144;85;25692;-60
2022/09/15 10:31:32;;;;;;;4.05;3.65;;;;;;;18.92;86.91;97401.37;1686799;85;29534;-60
2022/09/15 10:34:00;;;;;;;4.70;4.20;;;;;;;19.04;87.01;97394.59;1686772;85;25558;-60
2022/09/15 10:36:31;;;;;;;4.50;3.75;;;;;;;19.03;86.57;97400.54;1681654;82;25825;-60
2022/09/15 10:39:18;;;;;;;;;;;;;;;19.00;86.48;97394.41;1744683;82;25824;-60
2022/09/15 10:42:03;;;;;;;4.10;3.70;;;;;;;19.02;86.70;97386.45;1742162;82;25785;-60
2022/09/15 10:44:38;;;;;;;5.60;3.87;;;;;;;19.05;86.10;97389.80;1741930;82;28283;-60
2022/09/15 10:47:51;;;;;;;4.95;3.98;;;;;;;19.08;85.72;97389.62;1742321;82;25658;-60
2022/09/15 10:50:32;;;;;;;5.55;4.10;;;;;;;19.08;85.43;97389.03;1742227;82;25601;-60
2022/09/15 10:53:30;;;;;;;;;;;;;;;19.06;85.50;97387.24;1742147;82;25780;-61
2022/09/15 10:56:04;;;;;;;7.05;4.70;;;;;;;19.08;85.05;97383.48;1741306;82;25698;-60
2022/09/15 10:58:41;;;;;;;6.45;5.30;;;;;;;19.10;85.59;97374.16;1743033;82;27391;-60
2022/09/15 11:01:31;;;;;;;5.80;5.05;;;;;;;19.15;85.32;97382.08;1743037;81;25590;-60
2022/09/15 11:04:18;;;;;;;8.43;5.50;;;;;;;19.13;84.58;97375.33;1743489;81;25586;-60
2022/09/15 11:07:09;;;;;;;7.15;5.08;;;;;;;19.06;85.47;97371.36;1742643;81;25485;-59
2022/09/15 11:09:56;;;;;;;7.90;5.40;;;;;;;19.05;85.04;97371.17;1743192;81;25610;-59
2022/09/15 11:12:40;;;;;;;7.30;6.17;;;;;;;18.94;85.62;97371.21;1742615;82;27449;-59
2022/09/15 11:15:11;;;;;;;7.40;6.08;;;;;;;18.94;85.74;97370.41;1742385;81;25673;-59
2022/09/15 11:18:24;;;;;;;6.28;5.53;;;;;;;18.92;85.13;97360.33;1742670;81;25402;-58
2022/09/15 11:21:03;;;;;;;5.10;4.60;;;;;;;18.91;85.43;97359.52;1742897;81;25598;-60
2022/09/15 11:23:36;;;;;;;7.85;5.80;;;;;;;18.80;85.13;97358.78;1676855;85;25742;-60
2022/09/15 11:26:08;;;;;;;6.80;5.78;;;;;;;18.71;85.23;97351.48;1676990;85;27518;-61
2022/09/15 11:28:48;;;;;;;6.97;5.62;;;;;;;18.67;85.53;97354.25;1677264;85;25900;-61
2022/09/15 11:31:24;;;;;;;8.70;5.78;;;;;;;18.61;85.58;97355.27;1677613;85;25690;-61
2022/09/15 11:34:17;;;;;;;8.25;5.45;;;;;;;18.52;85.56;97355.69;1676695;85;25524;-62
2022/09/15 11:37:41;;;;;;;6.58;5.50;;;;;;;18.45;85.97;97349.36;1651936;86;25832;-63
2022/09/15 11:40:27;;;;;;;7.55;5.58;;;;;;;18.42;86.51;97344.80;1652124;86;28357;-62
2022/09/15 11:43:19;;;;;;;7.95;5.97;;;;;;;18.53;87.24;97339.81;1651353;86;25547;-62
2022/09/15 11:45:58;;;;;;;8.43;5.97;;;;;;;18.55;86.85;97337.44;1651701;86;25969;-60
2022/09/15 11:49:07;;;;;;;7.60;5.60;;;;;;;18.45;87.00;97327.94;1647925;86;25816;-59
2022/09/15 11:51:54;;;;;;;5.92;4.60;;;;;;;18.39;87.08;97333.72;1652034;86;25532;-59
2022/09/15 11:54:32;;;;;;;4.58;3.90;;;;;;;18.30;86.55;97330.76;1651501;86;28439;-59
2022/09/15 11:56:59;;;;;;;4.42;4.03;;;;;;;18.24;85.67;97331.55;1651203;86;25673;-59
2022/09/15 11:59:39;;;;;;;5.35;4.17;;;;;;;18.21;86.81;97328.98;1650982;86;25692;-60